Time;durP1;ratioP1;P1;durP2;ratioP2;P2;SDS_P1;SDS_P2;PMS_P1;PMS_P2;Temp;Humidity;BMP_temperature;BMP_pressure;BME280_temperature;BME280_humidity;BME280_pressure;Samples;Min_cycle;Max_cycle;Signal;HPM_P1;HPM_P2
2023/05/22 00:00:39;;;;;;;32.15;29.38;;;;;;;;;;6308443;22;20019;-82
2023/05/22 00:03:05;;;;;;;32.53;29.40;;;;;;;;;;6307457;22;20019;-82
2023/05/22 00:05:33;;;;;;;30.58;28.02;;;;;;;;;;6307015;22;20015;-81
2023/05/22 00:07:59;;;;;;;32.78;29.83;;;;;;;;;;6309544;22;20021;-81
2023/05/22 00:10:25;;;;;;;33.53;30.63;;;;;;;;;;6282469;22;20038;-82
2023/05/22 00:12:51;;;;;;;30.52;27.73;;;;;;;;;;6308859;22;20015;-82
2023/05/22 00:15:17;;;;;;;33.08;29.88;;;;;;;;;;6308376;22;20026;-82
2023/05/22 00:17:43;;;;;;;35.35;32.13;;;;;;;;;;6307234;22;20042;-83
2023/05/22 00:20:10;;;;;;;34.08;30.98;;;;;;;;;;6307169;22;20015;-83
2023/05/22 00:22:36;;;;;;;33.10;30.15;;;;;;;;;;6281430;22;20022;-83
2023/05/22 00:25:06;;;;;;;31.08;28.33;;;;;;;;;;6308035;22;20069;-82
2023/05/22 00:27:33;;;;;;;33.50;30.48;;;;;;;;;;6281843;22;20022;-82
2023/05/22 00:29:59;;;;;;;34.78;31.33;;;;;;;;;;6282237;22;20322;-83
2023/05/22 00:32:26;;;;;;;32.97;30.08;;;;;;;;;;6280758;22;20019;-82
2023/05/22 00:34:52;;;;;;;35.15;32.03;;;;;;;;;;6307030;22;20333;-82
2023/05/22 00:37:19;;;;;;;32.53;29.67;;;;;;;;;;6281082;22;20055;-82
2023/05/22 00:39:45;;;;;;;37.05;33.70;;;;;;;;;;6281318;22;20021;-82
2023/05/22 00:42:11;;;;;;;37.60;34.05;;;;;;;;;;6306741;22;20050;-82
2023/05/22 00:44:37;;;;;;;36.03;32.80;;;;;;;;;;6308509;22;20019;-82
2023/05/22 00:47:03;;;;;;;36.92;33.53;;;;;;;;;;6306958;22;20099;-82
2023/05/22 00:49:30;;;;;;;34.85;31.88;;;;;;;;;;6306827;22;20460;-82
2023/05/22 00:51:56;;;;;;;38.80;35.25;;;;;;;;;;6306805;22;20022;-83
2023/05/22 00:54:23;;;;;;;36.63;33.38;;;;;;;;;;6306738;22;20469;-82
2023/05/22 00:56:50;;;;;;;35.25;32.17;;;;;;;;;;6282229;22;20062;-82
2023/05/22 00:59:16;;;;;;;33.72;30.80;;;;;;;;;;6281097;22;20026;-83
2023/05/22 01:01:43;;;;;;;36.17;33.22;;;;;;;;;;6306937;22;20046;-83
2023/05/22 01:04:10;;;;;;;34.85;31.92;;;;;;;;;;6306476;22;20023;-83
2023/05/22 01:06:36;;;;;;;36.33;33.22;;;;;;;;;;6307747;22;20058;-82
2023/05/22 01:09:03;;;;;;;34.28;31.13;;;;;;;;;;6281830;22;20022;-82
2023/05/22 01:11:41;;;;;;;36.28;33.33;;;;;;;;;;6281257;22;20050;-83
2023/05/22 01:14:14;;;;;;;35.60;32.70;;;;;;;;;;6306513;22;20015;-82
2023/05/22 01:16:58;;;;;;;35.83;32.72;;;;;;;;;;6308762;22;20019;-82
2023/05/22 01:19:24;;;;;;;32.13;29.43;;;;;;;;;;6281334;22;20038;-82
2023/05/22 01:21:54;;;;;;;34.95;31.90;;;;;;;;;;6280765;22;20254;-82
2023/05/22 01:24:20;;;;;;;38.47;34.88;;;;;;;;;;6280778;22;20015;-82
2023/05/22 01:27:05;;;;;;;34.72;31.77;;;;;;;;;;6306540;22;20015;-81
2023/05/22 01:29:50;;;;;;;36.05;32.92;;;;;;;;;;6280660;22;20038;-82
2023/05/22 01:32:20;;;;;;;35.65;32.42;;;;;;;;;;6306393;22;20020;-81
2023/05/22 01:34:47;;;;;;;33.50;30.75;;;;;;;;;;6307502;22;20045;-81
2023/05/22 01:37:13;;;;;;;38.05;34.28;;;;;;;;;;6306377;22;20023;-82
2023/05/22 01:39:40;;;;;;;34.75;31.67;;;;;;;;;;6306750;22;20019;-82
2023/05/22 01:42:06;;;;;;;36.78;33.47;;;;;;;;;;6281270;22;20060;-82
2023/05/22 01:44:32;;;;;;;35.40;32.28;;;;;;;;;;6306455;22;20022;-82
2023/05/22 01:47:03;;;;;;;35.90;32.78;;;;;;;;;;6280881;22;20027;-81
2023/05/22 01:49:30;;;;;;;34.67;31.77;;;;;;;;;;6306772;22;20073;-81
2023/05/22 01:52:08;;;;;;;33.40;30.63;;;;;;;;;;6280161;22;20433;-82
2023/05/22 01:54:53;;;;;;;37.28;33.95;;;;;;;;;;6306165;22;20023;-83
2023/05/22 01:57:23;;;;;;;36.92;33.88;;;;;;;;;;6307285;22;20311;-82
2023/05/22 01:59:53;;;;;;;37.95;34.72;;;;;;;;;;6281499;22;20489;-83
2023/05/22 02:02:20;;;;;;;37.33;34.17;;;;;;;;;;6280756;22;20488;-82
2023/05/22 02:04:50;;;;;;;35.63;32.40;;;;;;;;;;6305808;22;20449;-83
2023/05/22 02:07:17;;;;;;;40.42;36.80;;;;;;;;;;6306275;22;20038;-83
2023/05/22 02:09:45;;;;;;;35.60;32.53;;;;;;;;;;6280384;22;20514;-82
2023/05/22 02:12:12;;;;;;;37.03;33.97;;;;;;;;;;6306094;22;20094;-83
2023/05/22 02:14:38;;;;;;;35.00;32.13;;;;;;;;;;6307810;22;20023;-82
2023/05/22 02:17:06;;;;;;;36.55;33.25;;;;;;;;;;6308474;22;20023;-82
2023/05/22 02:19:34;;;;;;;38.30;34.70;;;;;;;;;;6280414;22;20073;-82
2023/05/22 02:22:00;;;;;;;37.78;34.50;;;;;;;;;;6281391;22;20434;-83
2023/05/22 02:24:26;;;;;;;39.78;36.25;;;;;;;;;;6307125;22;20046;-83
2023/05/22 02:26:52;;;;;;;36.60;33.50;;;;;;;;;;6307058;22;20429;-83
2023/05/22 02:29:19;;;;;;;37.95;34.60;;;;;;;;;;6280630;22;20015;-83
2023/05/22 02:31:45;;;;;;;36.30;33.22;;;;;;;;;;6280603;22;20026;-83
2023/05/22 02:34:11;;;;;;;44.40;40.30;;;;;;;;;;6306050;22;20022;-83
2023/05/22 02:36:37;;;;;;;39.25;35.97;;;;;;;;;;6306144;22;20019;-82
2023/05/22 02:39:04;;;;;;;39.25;35.75;;;;;;;;;;6305678;22;20051;-83
2023/05/22 02:41:30;;;;;;;40.45;36.83;;;;;;;;;;6280542;22;20030;-83
2023/05/22 02:43:56;;;;;;;39.70;36.40;;;;;;;;;;6305998;22;20345;-83
2023/05/22 02:46:22;;;;;;;37.83;34.42;;;;;;;;;;6305996;22;20068;-83
2023/05/22 02:48:48;;;;;;;36.08;33.10;;;;;;;;;;6306035;22;20019;-83
2023/05/22 02:51:15;;;;;;;34.65;31.70;;;;;;;;;;6306327;22;20022;-83
2023/05/22 02:53:41;;;;;;;35.50;32.55;;;;;;;;;;6307536;22;20019;-83
2023/05/22 02:56:10;;;;;;;37.92;34.85;;;;;;;;;;6305971;22;20513;-83
2023/05/22 02:58:37;;;;;;;44.55;40.33;;;;;;;;;;6305920;22;20033;-83
2023/05/22 03:01:05;;;;;;;36.13;32.92;;;;;;;;;;6280530;22;20019;-82
2023/05/22 03:03:32;;;;;;;37.47;34.30;;;;;;;;;;6307589;22;20022;-84
2023/05/22 03:06:00;;;;;;;41.20;37.65;;;;;;;;;;6282118;22;20026;-83
2023/05/22 03:08:27;;;;;;;38.78;35.42;;;;;;;;;;6282914;22;20090;-83
2023/05/22 03:10:53;;;;;;;34.53;31.60;;;;;;;;;;6282332;22;20015;-84
2023/05/22 03:13:19;;;;;;;35.17;32.40;;;;;;;;;;6282057;22;20012;-83
2023/05/22 03:15:45;;;;;;;35.72;32.63;;;;;;;;;;6307993;22;20520;-83
2023/05/22 03:18:11;;;;;;;41.03;37.30;;;;;;;;;;6281897;22;20457;-83
2023/05/22 03:20:37;;;;;;;42.10;38.47;;;;;;;;;;6282219;22;20019;-82
2023/05/22 03:23:05;;;;;;;38.42;35.10;;;;;;;;;;6281961;22;20055;-83
2023/05/22 03:25:31;;;;;;;35.13;32.22;;;;;;;;;;6308650;22;20042;-83
2023/05/22 03:27:57;;;;;;;38.45;35.30;;;;;;;;;;6308437;22;20425;-83
2023/05/22 03:30:23;;;;;;;34.38;31.67;;;;;;;;;;6282092;22;20023;-83
2023/05/22 03:32:51;;;;;;;33.75;30.95;;;;;;;;;;6307536;22;20016;-83
2023/05/22 03:35:18;;;;;;;32.85;30.25;;;;;;;;;;6282349;22;20011;-83
2023/05/22 03:37:48;;;;;;;35.42;32.63;;;;;;;;;;6282477;22;20034;-83
2023/05/22 03:40:14;;;;;;;37.75;34.55;;;;;;;;;;6307438;22;20015;-83
2023/05/22 03:42:40;;;;;;;34.83;31.83;;;;;;;;;;6281870;22;20388;-84
2023/05/22 03:45:06;;;;;;;42.85;39.05;;;;;;;;;;6308328;22;20098;-83
2023/05/22 03:47:32;;;;;;;36.67;33.67;;;;;;;;;;6307311;22;20476;-83
2023/05/22 03:49:59;;;;;;;38.85;35.50;;;;;;;;;;6308404;22;20325;-83
2023/05/22 03:52:25;;;;;;;37.95;34.58;;;;;;;;;;6281603;22;20015;-83
2023/05/22 03:54:52;;;;;;;36.20;33.13;;;;;;;;;;6307484;22;20023;-83
2023/05/22 03:57:18;;;;;;;41.45;37.47;;;;;;;;;;6308006;22;20019;-83
2023/05/22 03:59:45;;;;;;;52.88;44.55;;;;;;;;;;6281259;22;20027;-83
2023/05/22 04:02:11;;;;;;;50.63;45.38;;;;;;;;;;6307400;22;20461;-83
2023/05/22 04:04:38;;;;;;;40.53;36.92;;;;;;;;;;6281074;22;20022;-83
2023/05/22 04:07:07;;;;;;;41.88;37.95;;;;;;;;;;6306968;22;20019;-83
2023/05/22 04:09:34;;;;;;;38.05;34.80;;;;;;;;;;6282426;22;20038;-83
2023/05/22 04:12:01;;;;;;;41.25;37.55;;;;;;;;;;6308396;22;20038;-83
2023/05/22 04:14:27;;;;;;;41.00;37.35;;;;;;;;;;6306654;22;20015;-83
2023/05/22 04:16:53;;;;;;;38.97;35.67;;;;;;;;;;6281281;22;20066;-83
2023/05/22 04:19:20;;;;;;;47.95;43.42;;;;;;;;;;6307198;22;20015;-82
2023/05/22 04:21:48;;;;;;;36.08;33.08;;;;;;;;;;6281702;22;20500;-83
2023/05/22 04:24:14;;;;;;;41.50;37.70;;;;;;;;;;6307492;22;20418;-82
2023/05/22 04:26:40;;;;;;;41.10;37.40;;;;;;;;;;6281588;22;20019;-83
2023/05/22 04:29:09;;;;;;;40.38;36.80;;;;;;;;;;6307038;22;20057;-83
2023/05/22 04:31:36;;;;;;;40.33;36.40;;;;;;;;;;6308057;22;20080;-83
2023/05/22 04:34:02;;;;;;;38.92;35.60;;;;;;;;;;6282200;22;20015;-83
2023/05/22 04:36:29;;;;;;;38.75;35.53;;;;;;;;;;6281183;22;20467;-83
2023/05/22 04:38:56;;;;;;;39.38;35.80;;;;;;;;;;6306847;22;20019;-83
2023/05/22 04:41:25;;;;;;;39.60;36.05;;;;;;;;;;6306586;22;20016;-82
2023/05/22 04:43:51;;;;;;;39.05;35.75;;;;;;;;;;6306858;22;20029;-82
2023/05/22 04:46:18;;;;;;;37.50;34.30;;;;;;;;;;6306946;22;20068;-82
2023/05/22 04:48:45;;;;;;;37.83;34.65;;;;;;;;;;6281153;22;20049;-83
2023/05/22 04:51:13;;;;;;;38.15;34.80;;;;;;;;;;6306917;22;20015;-82
2023/05/22 04:53:39;;;;;;;38.63;35.22;;;;;;;;;;6281055;22;20330;-82
2023/05/22 04:56:06;;;;;;;38.90;35.33;;;;;;;;;;6281096;22;20432;-83
2023/05/22 04:58:32;;;;;;;37.50;34.35;;;;;;;;;;6281479;22;20011;-82
2023/05/22 05:00:58;;;;;;;36.50;33.65;;;;;;;;;;6280980;22;20026;-82
2023/05/22 05:03:24;;;;;;;37.60;34.45;;;;;;;;;;6307104;22;20022;-83
2023/05/22 05:05:51;;;;;;;35.78;32.72;;;;;;;;;;6306234;22;20045;-82
2023/05/22 05:08:17;;;;;;;35.40;32.33;;;;;;;;;;6306803;22;20022;-82
2023/05/22 05:10:43;;;;;;;35.97;32.83;;;;;;;;;;6307650;22;20042;-82
2023/05/22 05:13:09;;;;;;;35.60;32.33;;;;;;;;;;6281036;22;20012;-82
2023/05/22 05:15:35;;;;;;;37.80;34.47;;;;;;;;;;6306714;22;20041;-81
2023/05/22 05:18:01;;;;;;;35.22;32.22;;;;;;;;;;6306684;22;20011;-81
2023/05/22 05:20:28;;;;;;;34.25;31.27;;;;;;;;;;6306731;22;20094;-81
2023/05/22 05:22:55;;;;;;;34.50;31.70;;;;;;;;;;6280882;22;20015;-81
2023/05/22 05:25:21;;;;;;;36.03;32.53;;;;;;;;;;6281867;22;20023;-81
2023/05/22 05:27:47;;;;;;;34.85;32.15;;;;;;;;;;6281345;22;20074;-82
2023/05/22 05:30:14;;;;;;;33.28;30.67;;;;;;;;;;6281315;22;20021;-82
2023/05/22 05:32:40;;;;;;;33.55;30.80;;;;;;;;;;6280687;22;20016;-82
2023/05/22 05:35:06;;;;;;;32.45;29.63;;;;;;;;;;6281223;22;20019;-81
2023/05/22 05:37:32;;;;;;;33.00;30.30;;;;;;;;;;6281384;22;20023;-82
2023/05/22 05:39:58;;;;;;;32.58;29.77;;;;;;;;;;6280728;22;20468;-82
2023/05/22 05:42:25;;;;;;;32.53;29.65;;;;;;;;;;6281981;22;20057;-82
2023/05/22 05:44:51;;;;;;;33.20;30.40;;;;;;;;;;6307573;22;20015;-82
2023/05/22 05:47:17;;;;;;;32.40;29.80;;;;;;;;;;6280547;22;20069;-82
2023/05/22 05:49:43;;;;;;;31.42;29.08;;;;;;;;;;6307492;22;20077;-81
2023/05/22 05:52:09;;;;;;;31.95;29.35;;;;;;;;;;6307541;22;20012;-82
2023/05/22 05:54:35;;;;;;;29.88;27.33;;;;;;;;;;6280635;22;20015;-81
2023/05/22 05:57:01;;;;;;;30.83;28.20;;;;;;;;;;6307511;22;20011;-81
2023/05/22 05:59:27;;;;;;;30.67;28.08;;;;;;;;;;6306707;22;20015;-81
2023/05/22 06:01:53;;;;;;;30.77;28.13;;;;;;;;;;6307430;22;20023;-82
2023/05/22 06:04:19;;;;;;;30.70;27.80;;;;;;;;;;6280268;22;20073;-81
2023/05/22 06:06:46;;;;;;;30.45;28.02;;;;;;;;;;6306567;22;20023;-82
2023/05/22 06:09:12;;;;;;;31.15;28.67;;;;;;;;;;6280772;22;20102;-82
2023/05/22 06:11:39;;;;;;;29.13;26.70;;;;;;;;;;6280659;22;20023;-83
2023/05/22 06:14:07;;;;;;;30.35;27.85;;;;;;;;;;6306375;22;20015;-82
2023/05/22 06:16:33;;;;;;;28.70;26.40;;;;;;;;;;6280607;22;20031;-82
2023/05/22 06:18:59;;;;;;;29.92;27.50;;;;;;;;;;6306438;22;20345;-82
2023/05/22 06:21:25;;;;;;;29.10;26.83;;;;;;;;;;6280981;22;20026;-81
2023/05/22 06:23:51;;;;;;;29.45;27.02;;;;;;;;;;6281629;22;20421;-82
2023/05/22 06:26:18;;;;;;;27.88;25.58;;;;;;;;;;6306079;22;20015;-82
2023/05/22 06:28:44;;;;;;;28.38;26.05;;;;;;;;;;6279808;22;20457;-82
2023/05/22 06:31:10;;;;;;;27.42;25.52;;;;;;;;;;6306695;22;20380;-82
2023/05/22 06:33:36;;;;;;;27.52;25.40;;;;;;;;;;6280302;22;20404;-82
2023/05/22 06:36:06;;;;;;;26.45;24.25;;;;;;;;;;6306123;22;20020;-82
2023/05/22 06:38:32;;;;;;;26.65;24.35;;;;;;;;;;6308126;22;20081;-82
2023/05/22 06:40:58;;;;;;;26.20;24.15;;;;;;;;;;6282758;22;20421;-82
2023/05/22 06:43:24;;;;;;;26.33;24.33;;;;;;;;;;6282434;22;20015;-82
2023/05/22 06:45:50;;;;;;;25.13;23.35;;;;;;;;;;6309141;22;20444;-83
2023/05/22 06:48:16;;;;;;;27.42;25.13;;;;;;;;;;6307983;22;20463;-83
2023/05/22 06:50:42;;;;;;;27.90;25.63;;;;;;;;;;6282266;22;20054;-83
2023/05/22 06:53:08;;;;;;;27.23;25.00;;;;;;;;;;6282547;22;20018;-83
2023/05/22 06:55:34;;;;;;;26.73;24.45;;;;;;;;;;6282332;22;20019;-83
2023/05/22 06:58:01;;;;;;;25.98;24.02;;;;;;;;;;6282476;22;20456;-83
2023/05/22 07:00:27;;;;;;;25.17;23.08;;;;;;;;;;6282515;22;20011;-83
2023/05/22 07:02:53;;;;;;;27.10;24.90;;;;;;;;;;6309584;22;20019;-83
2023/05/22 07:05:19;;;;;;;25.40;23.50;;;;;;;;;;6307685;22;20019;-82
2023/05/22 07:07:45;;;;;;;28.35;26.10;;;;;;;;;;6308340;22;20061;-82
2023/05/22 07:10:11;;;;;;;26.75;24.63;;;;;;;;;;6309051;22;20015;-82
2023/05/22 07:12:40;;;;;;;26.60;24.48;;;;;;;;;;6283857;22;20046;-83
2023/05/22 07:15:10;;;;;;;26.30;24.27;;;;;;;;;;6308026;22;20017;-83
2023/05/22 07:17:36;;;;;;;27.15;24.75;;;;;;;;;;6284366;22;20086;-83
2023/05/22 07:20:02;;;;;;;24.70;22.80;;;;;;;;;;6282341;22;20018;-83
2023/05/22 07:22:28;;;;;;;27.33;25.10;;;;;;;;;;6281761;22;20449;-83
2023/05/22 07:24:54;;;;;;;27.45;25.10;;;;;;;;;;6282078;22;20015;-83
2023/05/22 07:27:20;;;;;;;25.73;23.50;;;;;;;;;;6307773;22;20460;-83
2023/05/22 07:29:47;;;;;;;25.35;23.40;;;;;;;;;;6307740;22;20394;-83
2023/05/22 07:32:13;;;;;;;26.08;23.98;;;;;;;;;;6307768;22;20015;-83
2023/05/22 07:34:39;;;;;;;27.48;25.42;;;;;;;;;;6308654;22;20098;-83
2023/05/22 07:37:09;;;;;;;29.40;26.20;;;;;;;;;;6282163;22;20015;-82
2023/05/22 07:39:35;;;;;;;26.73;24.52;;;;;;;;;;6307822;22;20037;-83
2023/05/22 07:42:01;;;;;;;27.40;25.23;;;;;;;;;;6281950;22;20066;-82
2023/05/22 07:44:28;;;;;;;27.13;25.13;;;;;;;;;;6282238;22;20042;-82
2023/05/22 07:46:54;;;;;;;27.25;25.20;;;;;;;;;;6282306;22;20053;-82
2023/05/22 07:49:22;;;;;;;29.23;26.70;;;;;;;;;;6281908;22;20019;-83
2023/05/22 07:51:48;;;;;;;27.63;25.33;;;;;;;;;;6281854;22;20500;-83
2023/05/22 07:54:14;;;;;;;26.38;24.30;;;;;;;;;;6281926;22;20011;-82
2023/05/22 07:56:44;;;;;;;26.00;24.02;;;;;;;;;;6307194;22;20152;-82
2023/05/22 07:59:11;;;;;;;26.50;24.50;;;;;;;;;;6307600;22;20341;-83
2023/05/22 08:01:40;;;;;;;26.63;24.52;;;;;;;;;;6307589;22;20019;-82
2023/05/22 08:04:07;;;;;;;26.38;24.48;;;;;;;;;;6282867;22;20023;-82
2023/05/22 08:06:37;;;;;;;26.50;24.17;;;;;;;;;;6305545;22;20023;-82
2023/05/22 08:09:03;;;;;;;26.00;23.40;;;;;;;;;;6305959;22;20019;-82
2023/05/22 08:11:30;;;;;;;25.95;23.65;;;;;;;;;;6306253;22;20011;-82
2023/05/22 08:13:56;;;;;;;26.38;24.20;;;;;;;;;;6281177;22;20417;-82
2023/05/22 08:16:22;;;;;;;25.48;23.27;;;;;;;;;;6306224;22;20011;-82
2023/05/22 08:18:49;;;;;;;26.77;24.70;;;;;;;;;;6281289;22;20046;-82
2023/05/22 08:21:15;;;;;;;27.10;24.55;;;;;;;;;;6279947;22;20015;-83
2023/05/22 08:23:41;;;;;;;26.55;24.20;;;;;;;;;;6307041;22;20368;-83
2023/05/22 08:26:10;;;;;;;25.85;23.65;;;;;;;;;;6306351;22;20023;-82
2023/05/22 08:28:39;;;;;;;25.58;23.58;;;;;;;;;;6305831;22;20026;-83
2023/05/22 08:31:05;;;;;;;24.20;22.30;;;;;;;;;;6307455;22;20020;-82
2023/05/22 08:33:31;;;;;;;25.95;23.55;;;;;;;;;;6306717;22;20019;-82
2023/05/22 08:35:57;;;;;;;25.75;23.33;;;;;;;;;;6280270;22;20015;-82
2023/05/22 08:38:23;;;;;;;24.33;22.33;;;;;;;;;;6305405;22;20026;-82
2023/05/22 08:40:49;;;;;;;24.02;22.13;;;;;;;;;;6305829;22;20364;-82
2023/05/22 08:43:15;;;;;;;24.48;22.58;;;;;;;;;;6306525;22;20015;-82
2023/05/22 08:45:42;;;;;;;23.20;21.30;;;;;;;;;;6305775;22;20072;-82
2023/05/22 08:48:11;;;;;;;23.88;21.92;;;;;;;;;;6281058;22;20136;-82
2023/05/22 08:50:40;;;;;;;24.80;22.73;;;;;;;;;;6305711;22;20065;-82
2023/05/22 08:53:07;;;;;;;23.75;21.55;;;;;;;;;;6306674;22;20015;-82
2023/05/22 08:55:34;;;;;;;23.15;21.15;;;;;;;;;;6305746;22;20026;-83
2023/05/22 08:58:00;;;;;;;22.40;20.70;;;;;;;;;;6279941;22;20089;-82
2023/05/22 09:00:26;;;;;;;20.77;19.35;;;;;;;;;;6279655;22;20417;-82
2023/05/22 09:02:54;;;;;;;20.85;18.83;;;;;;;;;;6280331;22;20012;-82
2023/05/22 09:05:25;;;;;;;19.73;17.92;;;;;;;;;;6229573;22;1176625;-82
2023/05/22 09:07:52;;;;;;;19.08;17.38;;;;;;;;;;6283345;22;20437;-83
2023/05/22 09:10:18;;;;;;;18.13;16.88;;;;;;;;;;6307821;22;20012;-82
2023/05/22 09:13:02;;;;;;;19.10;17.52;;;;;;;;;;6306741;22;20099;-82
2023/05/22 09:15:29;;;;;;;17.60;15.63;;;;;;;;;;6281401;22;20026;-82
2023/05/22 09:17:55;;;;;;;17.98;16.55;;;;;;;;;;6308363;22;20023;-82
2023/05/22 09:20:22;;;;;;;18.02;16.63;;;;;;;;;;6306762;22;20060;-82
2023/05/22 09:22:48;;;;;;;18.20;16.52;;;;;;;;;;6306882;22;20053;-82
2023/05/22 09:25:17;;;;;;;17.35;15.93;;;;;;;;;;6280954;22;20019;-82
2023/05/22 09:27:50;;;;;;;17.63;16.05;;;;;;;;;;6307700;22;20015;-82
2023/05/22 09:30:19;;;;;;;16.85;15.38;;;;;;;;;;6280906;22;20023;-82
2023/05/22 09:32:48;;;;;;;18.83;17.10;;;;;;;;;;6306600;22;20016;-81
2023/05/22 09:35:14;;;;;;;16.83;15.32;;;;;;;;;;6281869;22;20027;-82
2023/05/22 09:37:40;;;;;;;17.08;15.65;;;;;;;;;;6307712;22;20047;-82
2023/05/22 09:40:08;;;;;;;16.40;15.07;;;;;;;;;;6307094;22;20015;-82
2023/05/22 09:42:34;;;;;;;16.63;15.38;;;;;;;;;;6306973;22;20437;-82
2023/05/22 09:45:04;;;;;;;16.77;15.15;;;;;;;;;;6308165;22;20038;-82
2023/05/22 09:47:30;;;;;;;16.05;14.88;;;;;;;;;;6306603;22;20019;-82
2023/05/22 09:49:59;;;;;;;17.17;15.73;;;;;;;;;;6306533;22;20445;-82
2023/05/22 09:52:28;;;;;;;17.10;15.90;;;;;;;;;;6306257;22;20479;-82
2023/05/22 09:54:55;;;;;;;16.83;15.35;;;;;;;;;;6306551;22;20019;-81
2023/05/22 09:57:25;;;;;;;15.13;13.93;;;;;;;;;;6306577;22;20015;-81
2023/05/22 09:59:56;;;;;;;15.63;14.40;;;;;;;;;;6306592;22;20524;-81
2023/05/22 10:02:23;;;;;;;16.17;14.88;;;;;;;;;;6306652;22;20429;-82
2023/05/22 10:04:49;;;;;;;15.35;14.15;;;;;;;;;;6306230;22;20099;-81
2023/05/22 10:07:18;;;;;;;15.55;14.27;;;;;;;;;;6306506;22;20472;-82
2023/05/22 10:09:47;;;;;;;16.45;15.02;;;;;;;;;;6281729;22;20024;-82
2023/05/22 10:12:18;;;;;;;15.32;13.95;;;;;;;;;;6307145;22;20468;-82
2023/05/22 10:14:44;;;;;;;15.15;14.07;;;;;;;;;;6283817;22;20460;-82
2023/05/22 10:17:11;;;;;;;14.70;13.60;;;;;;;;;;6308961;22;20054;-82
2023/05/22 10:19:37;;;;;;;16.17;14.63;;;;;;;;;;6282736;22;20011;-83
2023/05/22 10:22:04;;;;;;;16.13;14.80;;;;;;;;;;6308896;22;20026;-82
2023/05/22 10:24:31;;;;;;;14.05;13.15;;;;;;;;;;6308129;22;20019;-82
2023/05/22 10:26:57;;;;;;;15.35;14.05;;;;;;;;;;6283025;22;20337;-82
2023/05/22 10:29:37;;;;;;;15.90;14.50;;;;;;;;;;6308513;22;20106;-82
2023/05/22 10:32:07;;;;;;;16.33;14.90;;;;;;;;;;6308808;22;20026;-83
2023/05/22 10:34:51;;;;;;;14.77;13.65;;;;;;;;;;6308668;22;20345;-83
2023/05/22 10:37:26;;;;;;;16.30;14.90;;;;;;;;;;6310683;22;20029;-83
2023/05/22 10:40:04;;;;;;;15.77;14.38;;;;;;;;;;6309977;22;20488;-83
2023/05/22 10:42:31;;;;;;;13.90;12.70;;;;;;;;;;6282648;22;20483;-83
2023/05/22 10:44:58;;;;;;;13.15;12.25;;;;;;;;;;6283612;22;20062;-82
2023/05/22 10:47:25;;;;;;;13.90;12.77;;;;;;;;;;6310167;22;20015;-83
2023/05/22 10:50:02;;;;;;;12.90;12.00;;;;;;;;;;6283668;22;20012;-82
2023/05/22 10:52:28;;;;;;;13.57;12.27;;;;;;;;;;6308562;22;20015;-82
2023/05/22 10:54:54;;;;;;;14.27;13.27;;;;;;;;;;6308255;22;20015;-83
2023/05/22 10:57:23;;;;;;;14.63;13.52;;;;;;;;;;6308588;22;20372;-83
2023/05/22 10:59:50;;;;;;;14.13;12.80;;;;;;;;;;6309014;22;20162;-82
2023/05/22 11:02:19;;;;;;;14.43;13.25;;;;;;;;;;6308575;22;20149;-82
2023/05/22 11:04:45;;;;;;;15.35;14.05;;;;;;;;;;6307873;22;20016;-82
2023/05/22 11:07:13;;;;;;;14.65;13.23;;;;;;;;;;6308522;22;20400;-83
2023/05/22 11:09:46;;;;;;;14.23;12.90;;;;;;;;;;6283166;22;20449;-82
2023/05/22 11:12:12;;;;;;;15.00;13.70;;;;;;;;;;6308401;22;20015;-82
2023/05/22 11:14:38;;;;;;;14.27;13.02;;;;;;;;;;6307972;22;20501;-83
2023/05/22 11:17:08;;;;;;;13.02;12.18;;;;;;;;;;6283414;22;20049;-83
2023/05/22 11:19:34;;;;;;;13.20;11.93;;;;;;;;;;6307977;22;20022;-82
2023/05/22 11:22:03;;;;;;;13.68;12.57;;;;;;;;;;6309001;22;20019;-82
2023/05/22 11:24:33;;;;;;;14.82;13.80;;;;;;;;;;6307806;22;20038;-82
2023/05/22 11:27:05;;;;;;;13.98;12.93;;;;;;;;;;6282003;22;20081;-82
2023/05/22 11:29:31;;;;;;;13.73;12.65;;;;;;;;;;6309618;22;20019;-82
2023/05/22 11:31:58;;;;;;;13.93;12.77;;;;;;;;;;6309329;22;20441;-83
2023/05/22 11:34:24;;;;;;;13.27;12.23;;;;;;;;;;6281989;22;20016;-83
2023/05/22 11:36:52;;;;;;;13.80;12.80;;;;;;;;;;6308102;22;20023;-84
2023/05/22 11:39:18;;;;;;;13.63;12.55;;;;;;;;;;6308908;22;20019;-83
2023/05/22 11:41:44;;;;;;;13.68;12.68;;;;;;;;;;6309022;22;20061;-83
2023/05/22 11:44:10;;;;;;;13.57;12.43;;;;;;;;;;6307816;22;20019;-83
2023/05/22 11:46:38;;;;;;;14.25;13.05;;;;;;;;;;6308115;22;20019;-83
2023/05/22 11:49:05;;;;;;;12.70;11.73;;;;;;;;;;6308085;22;20015;-83
2023/05/22 11:51:32;;;;;;;15.18;13.68;;;;;;;;;;6307742;22;20366;-84
2023/05/22 11:53:58;;;;;;;14.80;13.60;;;;;;;;;;6307254;22;20012;-83
2023/05/22 11:56:24;;;;;;;15.85;14.25;;;;;;;;;;6307227;22;20091;-83
2023/05/22 11:58:50;;;;;;;14.63;13.23;;;;;;;;;;6281771;22;20016;-83
2023/05/22 12:01:22;;;;;;;14.90;13.48;;;;;;;;;;6308639;22;20076;-83
2023/05/22 12:03:48;;;;;;;15.27;11.90;;;;;;;;;;6309112;22;20465;-83
2023/05/22 12:06:16;;;;;;;14.93;13.40;;;;;;;;;;6307627;22;20485;-84
2023/05/22 12:08:42;;;;;;;14.40;13.07;;;;;;;;;;6282054;22;20016;-83
2023/05/22 12:11:11;;;;;;;13.88;13.00;;;;;;;;;;6307847;22;20015;-83
2023/05/22 12:13:37;;;;;;;13.50;12.18;;;;;;;;;;6307234;22;20045;-85
2023/05/22 12:16:16;;;;;;;13.68;12.60;;;;;;;;;;6281922;22;20068;-83
2023/05/22 12:18:42;;;;;;;13.23;11.88;;;;;;;;;;6309119;22;20076;-84
2023/05/22 12:21:10;;;;;;;14.57;13.43;;;;;;;;;;6281788;22;20038;-84
2023/05/22 12:23:36;;;;;;;13.52;12.35;;;;;;;;;;6308492;22;20026;-84
2023/05/22 12:26:03;;;;;;;13.73;12.38;;;;;;;;;;6281663;22;20019;-83
2023/05/22 12:28:32;;;;;;;12.20;11.30;;;;;;;;;;6307259;22;20015;-82
2023/05/22 12:30:58;;;;;;;12.40;11.40;;;;;;;;;;6281534;22;20015;-82
2023/05/22 12:33:28;;;;;;;11.15;10.35;;;;;;;;;;6309709;22;20320;-82
2023/05/22 12:35:57;;;;;;;10.38;9.52;;;;;;;;;;6306424;22;20015;-82
2023/05/22 12:38:24;;;;;;;9.93;9.13;;;;;;;;;;6307499;22;20030;-82
2023/05/22 12:40:50;;;;;;;9.20;8.50;;;;;;;;;;6307220;22;20019;-82
2023/05/22 12:43:16;;;;;;;9.43;8.65;;;;;;;;;;6307189;22;20046;-83
2023/05/22 12:45:43;;;;;;;11.40;10.45;;;;;;;;;;6308730;22;20062;-83
2023/05/22 12:48:09;;;;;;;11.00;10.13;;;;;;;;;;6307166;22;20027;-84
2023/05/22 12:50:35;;;;;;;9.57;8.98;;;;;;;;;;6307293;22;20023;-84
2023/05/22 12:53:01;;;;;;;9.25;8.75;;;;;;;;;;6282116;22;20011;-84
2023/05/22 12:55:27;;;;;;;10.38;9.77;;;;;;;;;;6307057;22;20016;-83
2023/05/22 12:57:53;;;;;;;9.38;8.68;;;;;;;;;;6308613;22;20518;-83
2023/05/22 13:00:20;;;;;;;9.63;9.02;;;;;;;;;;6308002;22;20016;-82
2023/05/22 13:02:46;;;;;;;10.63;9.63;;;;;;;;;;6281406;22;20464;-83
2023/05/22 13:05:13;;;;;;;10.63;9.63;;;;;;;;;;6308220;22;20023;-82
2023/05/22 13:07:39;;;;;;;9.35;8.82;;;;;;;;;;6309092;22;20023;-84
2023/05/22 13:10:05;;;;;;;9.60;9.00;;;;;;;;;;6307276;22;20100;-83
2023/05/22 13:12:32;;;;;;;9.00;8.27;;;;;;;;;;6308352;22;20071;-82
2023/05/22 13:14:58;;;;;;;7.35;6.65;;;;;;;;;;6306896;22;20509;-84
2023/05/22 13:17:25;;;;;;;9.05;8.30;;;;;;;;;;6307859;22;20096;-84
2023/05/22 13:19:51;;;;;;;9.07;8.48;;;;;;;;;;6308470;22;20019;-84
2023/05/22 13:22:20;;;;;;;8.07;7.47;;;;;;;;;;6306955;22;20559;-83
2023/05/22 13:24:46;;;;;;;7.43;6.93;;;;;;;;;;6308416;22;20098;-84
2023/05/22 13:27:12;;;;;;;8.55;7.32;;;;;;;;;;6308280;22;20459;-84
2023/05/22 13:29:38;;;;;;;6.63;5.93;;;;;;;;;;6280929;22;20027;-84
2023/05/22 13:32:04;;;;;;;7.07;6.65;;;;;;;;;;6308309;22;20054;-84
2023/05/22 13:34:30;;;;;;;8.15;7.65;;;;;;;;;;6281976;22;20015;-83
2023/05/22 13:36:56;;;;;;;7.70;7.30;;;;;;;;;;6281475;22;20440;-83
2023/05/22 13:39:23;;;;;;;8.52;7.97;;;;;;;;;;6281361;22;20076;-83
2023/05/22 13:41:51;;;;;;;8.95;8.13;;;;;;;;;;6307769;22;20022;-83
2023/05/22 13:44:17;;;;;;;9.07;8.48;;;;;;;;;;6306882;22;20525;-83
2023/05/22 13:46:43;;;;;;;7.22;6.70;;;;;;;;;;6307581;22;20062;-83
2023/05/22 13:49:09;;;;;;;7.05;6.50;;;;;;;;;;6280709;22;20094;-83
2023/05/22 13:51:36;;;;;;;7.15;6.72;;;;;;;;;;6306440;22;20030;-83
2023/05/22 13:54:03;;;;;;;7.00;6.60;;;;;;;;;;6306501;22;20015;-83
2023/05/22 13:56:30;;;;;;;7.50;7.05;;;;;;;;;;6306606;22;20020;-83
2023/05/22 13:58:56;;;;;;;7.82;7.32;;;;;;;;;;6306510;22;20029;-83
2023/05/22 14:01:22;;;;;;;7.07;6.68;;;;;;;;;;6308157;22;20015;-83
2023/05/22 14:03:48;;;;;;;8.00;7.35;;;;;;;;;;6306571;22;20019;-83
2023/05/22 14:06:14;;;;;;;7.15;6.60;;;;;;;;;;6307347;22;20074;-83
2023/05/22 14:08:41;;;;;;;7.90;7.50;;;;;;;;;;6306858;22;20011;-83
2023/05/22 14:11:07;;;;;;;9.13;8.32;;;;;;;;;;6306549;22;20012;-83
2023/05/22 14:13:34;;;;;;;7.85;7.20;;;;;;;;;;6306498;22;20019;-83
2023/05/22 14:16:00;;;;;;;8.18;7.57;;;;;;;;;;6307546;22;20410;-83
2023/05/22 14:18:26;;;;;;;7.55;7.15;;;;;;;;;;6307603;22;20026;-83
2023/05/22 14:20:52;;;;;;;9.10;8.30;;;;;;;;;;6281876;22;20018;-82